createdAt,value
2019-02-24T00:00:31.995Z,30.70
2019-02-24T00:01:32.035Z,29.60
2019-02-24T00:02:32.063Z,32.70
2019-02-24T00:03:32.093Z,31.30
2019-02-24T00:04:32.152Z,33.60
2019-02-24T00:05:32.170Z,29.20
2019-02-24T00:06:32.196Z,30.00
2019-02-24T00:07:32.238Z,29.60
2019-02-24T00:08:32.267Z,29.90
2019-02-24T00:09:32.303Z,29.80
2019-02-24T00:10:32.336Z,30.80
2019-02-24T00:11:32.376Z,32.60
2019-02-24T00:12:32.407Z,29.70
2019-02-24T00:13:32.454Z,27.90
2019-02-24T00:14:32.486Z,29.10
2019-02-24T00:15:32.560Z,30.70
2019-02-24T00:16:32.546Z,29.00
2019-02-24T00:17:32.583Z,29.90
2019-02-24T00:18:32.615Z,29.20
2019-02-24T00:19:32.655Z,29.80
2019-02-24T00:20:32.686Z,30.50
2019-02-24T00:21:32.722Z,28.60
2019-02-24T00:22:32.757Z,29.50
2019-02-24T00:23:32.815Z,32.40
2019-02-24T00:24:32.896Z,30.40
2019-02-24T00:25:32.860Z,28.60
2019-02-24T00:26:32.902Z,29.90
2019-02-24T00:27:32.930Z,30.20
2019-02-24T00:28:32.985Z,30.20
2019-02-24T00:29:33.004Z,30.70
2019-02-24T00:30:33.036Z,28.30
2019-02-24T00:31:33.085Z,29.50
2019-02-24T00:32:34.444Z,30.00
2019-02-24T00:33:33.138Z,30.10
2019-02-24T00:34:33.186Z,28.00
2019-02-24T00:35:33.221Z,27.80
2019-02-24T00:36:33.243Z,30.00
2019-02-24T00:37:33.282Z,28.40
2019-02-24T00:38:33.314Z,29.10
2019-02-24T00:39:33.574Z,28.50
2019-02-24T00:40:33.450Z,29.90
2019-02-24T00:41:33.596Z,29.90
2019-02-24T00:42:37.478Z,31.50
2019-02-24T00:43:33.604Z,28.10
2019-02-24T00:44:33.526Z,28.70
2019-02-24T00:45:33.566Z,28.70
2019-02-24T00:46:33.589Z,27.00
2019-02-24T00:47:33.635Z,29.80
2019-02-24T00:48:33.722Z,27.90
2019-02-24T00:49:33.699Z,28.20
2019-02-24T00:50:33.738Z,28.40
2019-02-24T00:51:33.914Z,29.00
2019-02-24T00:52:33.804Z,28.50
2019-02-24T00:53:33.854Z,27.80
2019-02-24T00:54:33.870Z,27.70
2019-02-24T00:55:33.910Z,30.00
2019-02-24T00:56:33.937Z,28.60
2019-02-24T00:57:33.971Z,30.30
2019-02-24T00:58:34.008Z,30.70
2019-02-24T00:59:34.042Z,28.90
2019-02-24T01:00:34.076Z,29.70
2019-02-24T01:01:34.111Z,29.10
2019-02-24T01:02:34.154Z,29.30
2019-02-24T01:03:34.187Z,28.20
2019-02-24T01:04:34.218Z,26.40
2019-02-24T01:05:34.249Z,28.70
2019-02-24T01:06:34.303Z,29.90
2019-02-24T01:07:34.318Z,30.10
2019-02-24T01:08:34.355Z,32.80
2019-02-24T01:09:34.386Z,31.00
2019-02-24T01:10:34.423Z,31.80
2019-02-24T01:11:34.457Z,34.20
2019-02-24T01:12:34.492Z,28.60
2019-02-24T01:13:34.526Z,29.10
2019-02-24T01:14:34.570Z,28.00
2019-02-24T01:15:34.598Z,31.00
2019-02-24T01:16:34.632Z,29.90
2019-02-24T01:17:34.667Z,31.90
2019-02-24T01:18:34.711Z,28.80
2019-02-24T01:19:34.741Z,31.10
2019-02-24T01:20:34.769Z,27.90
2019-02-24T01:21:34.805Z,27.00
2019-02-24T01:22:34.837Z,28.20
2019-02-24T01:23:34.875Z,29.60
2019-02-24T01:24:34.909Z,26.90
2019-02-24T01:25:34.944Z,29.50
2019-02-24T01:26:34.978Z,29.10
2019-02-24T01:27:35.016Z,29.80
2019-02-24T01:28:35.047Z,30.40
2019-02-24T01:29:35.084Z,27.90
2019-02-24T01:30:35.117Z,31.10
2019-02-24T01:31:35.149Z,28.00
2019-02-24T01:32:35.184Z,28.90
2019-02-24T01:33:35.229Z,30.30
2019-02-24T01:34:35.257Z,30.30
2019-02-24T01:35:35.289Z,29.80
2019-02-24T01:36:35.324Z,29.70
2019-02-24T01:37:35.360Z,26.20
2019-02-24T01:38:35.401Z,28.80
2019-02-24T01:39:35.428Z,27.80
2019-02-24T01:40:35.461Z,26.40
2019-02-24T01:41:35.597Z,31.70
2019-02-24T01:42:35.531Z,28.70
2019-02-24T01:43:35.569Z,28.20
2019-02-24T01:44:35.600Z,27.10
2019-02-24T01:45:35.635Z,27.10
2019-02-24T01:46:35.669Z,29.10
2019-02-24T01:47:35.704Z,29.40
2019-02-24T01:48:35.740Z,28.70
2019-02-24T01:49:35.773Z,29.00
2019-02-24T01:50:35.807Z,31.00
2019-02-24T01:51:35.842Z,27.50
2019-02-24T01:52:35.887Z,27.30
2019-02-24T01:53:35.911Z,29.10
2019-02-24T01:54:35.944Z,27.70
2019-02-24T01:55:35.987Z,26.70
2019-02-24T01:56:36.015Z,28.50
2019-02-24T01:57:36.050Z,28.20
2019-02-24T01:58:36.089Z,27.30
2019-02-24T01:59:36.119Z,25.40
2019-02-24T02:00:36.159Z,25.80
2019-02-24T02:01:36.189Z,26.30
2019-02-24T02:02:36.224Z,24.60
2019-02-24T02:03:36.259Z,26.40
2019-02-24T02:04:36.295Z,28.60
2019-02-24T02:05:36.326Z,26.90
2019-02-24T02:06:36.361Z,27.00
2019-02-24T02:07:36.395Z,26.60
2019-02-24T02:08:36.442Z,26.80
2019-02-24T02:09:36.464Z,26.10
2019-02-24T02:10:36.501Z,25.40
2019-02-24T02:11:36.532Z,25.50
2019-02-24T02:12:36.565Z,26.50
2019-02-24T02:13:36.609Z,29.00
2019-02-24T02:14:36.634Z,27.20
2019-02-24T02:15:36.670Z,26.00
2019-02-24T02:16:36.707Z,28.30
2019-02-24T02:17:36.740Z,24.00
2019-02-24T02:18:36.788Z,25.30
2019-02-24T02:19:36.809Z,25.10
2019-02-24T02:20:36.844Z,26.40
2019-02-24T02:21:36.881Z,26.60
2019-02-24T02:22:36.912Z,27.50
2019-02-24T02:23:36.947Z,26.40
2019-02-24T02:24:37.031Z,27.20
2019-02-24T02:25:37.015Z,25.80
2019-02-24T02:26:37.048Z,27.40
2019-02-24T02:27:37.083Z,27.00
2019-02-24T02:28:43.781Z,26.90
2019-02-24T02:29:37.153Z,27.80
2019-02-24T02:30:37.187Z,26.00
2019-02-24T02:31:37.222Z,28.40
2019-02-24T02:32:37.256Z,28.00
2019-02-24T02:33:37.298Z,24.30
2019-02-24T02:34:37.327Z,28.70
2019-02-24T02:35:37.366Z,26.80
2019-02-24T02:36:37.396Z,24.60
2019-02-24T02:37:37.431Z,27.40
2019-02-24T02:38:37.464Z,29.00
2019-02-24T02:39:37.497Z,26.50
2019-02-24T02:40:37.532Z,27.00
2019-02-24T02:41:38.968Z,25.00
2019-02-24T02:42:37.602Z,26.70
2019-02-24T02:43:37.643Z,24.40
2019-02-24T02:44:37.688Z,25.70
2019-02-24T02:45:37.705Z,25.70
2019-02-24T02:46:37.736Z,26.50
2019-02-24T02:47:37.774Z,26.60
2019-02-24T02:48:37.806Z,24.30
2019-02-24T02:49:37.841Z,22.90
2019-02-24T02:50:37.875Z,24.30
2019-02-24T02:51:37.912Z,23.00
2019-02-24T02:52:37.944Z,24.20
2019-02-24T02:53:37.983Z,24.50
2019-02-24T02:54:38.013Z,24.70
2019-02-24T02:55:38.046Z,23.80
2019-02-24T02:56:38.080Z,24.70
2019-02-24T02:57:38.119Z,30.70
2019-02-24T02:58:38.150Z,28.10
2019-02-24T02:59:38.184Z,26.90
2019-02-24T03:00:38.220Z,27.20
2019-02-24T03:01:38.257Z,27.80
2019-02-24T03:02:38.295Z,26.80
2019-02-24T03:03:38.330Z,27.30
2019-02-24T03:04:38.358Z,26.20
2019-02-24T03:05:38.391Z,22.60
2019-02-24T03:06:38.435Z,24.70
2019-02-24T03:07:38.461Z,27.10
2019-02-24T03:08:38.503Z,25.30
2019-02-24T03:09:38.532Z,27.00
2019-02-24T03:10:38.565Z,24.40
2019-02-24T03:11:38.599Z,24.20
2019-02-24T03:12:38.632Z,23.20
2019-02-24T03:13:38.669Z,27.10
2019-02-24T03:14:38.704Z,23.70
2019-02-24T03:15:38.734Z,25.40
2019-02-24T03:16:38.769Z,24.70
2019-02-24T03:17:38.804Z,24.30
2019-02-24T03:18:38.836Z,22.70
2019-02-24T03:19:38.877Z,25.00
2019-02-24T03:20:38.914Z,23.30
2019-02-24T03:21:39.105Z,22.70
2019-02-24T03:22:38.975Z,23.90
2019-02-24T03:23:39.010Z,26.50
2019-02-24T03:24:39.043Z,23.60
2019-02-24T03:25:39.079Z,21.30
2019-02-24T03:26:39.111Z,21.40
2019-02-24T03:27:39.146Z,23.50
2019-02-24T03:28:39.180Z,23.20
2019-02-24T03:29:39.215Z,23.20
2019-02-24T03:30:39.251Z,22.40
2019-02-24T03:31:39.286Z,21.70
2019-02-24T03:32:39.320Z,22.40
2019-02-24T03:33:39.356Z,23.60
2019-02-24T03:34:39.395Z,23.50
2019-02-24T03:35:39.430Z,22.40
2019-02-24T03:36:39.455Z,22.00
2019-02-24T03:37:39.488Z,21.10
2019-02-24T03:38:39.530Z,23.40
2019-02-24T03:39:39.560Z,22.50
2019-02-24T03:40:39.598Z,23.70
2019-02-24T03:41:39.626Z,23.50
2019-02-24T03:42:39.661Z,23.40
2019-02-24T03:43:39.699Z,23.10
2019-02-24T03:44:39.744Z,24.90
2019-02-24T03:45:39.764Z,23.10
2019-02-24T03:46:39.799Z,21.20
2019-02-24T03:47:39.831Z,21.90
2019-02-24T03:48:39.877Z,22.70
2019-02-24T03:49:39.901Z,21.40
2019-02-24T03:50:39.944Z,23.10
2019-02-24T03:51:39.969Z,22.50
2019-02-24T03:52:40.004Z,22.50
2019-02-24T03:53:40.040Z,23.60
2019-02-24T03:54:40.073Z,22.40
2019-02-24T03:55:40.106Z,23.50
2019-02-24T03:56:40.140Z,21.70
2019-02-24T03:57:40.226Z,23.90
2019-02-24T03:58:40.211Z,23.40
2019-02-24T03:59:40.244Z,22.70
2019-02-24T04:00:40.277Z,24.00
2019-02-24T04:01:40.313Z,21.10
2019-02-24T04:02:40.357Z,25.10
2019-02-24T04:03:40.379Z,22.80
2019-02-24T04:04:40.466Z,21.60
2019-02-24T04:05:40.450Z,21.00
2019-02-24T04:06:40.832Z,23.20
2019-02-24T04:07:40.520Z,24.00
2019-02-24T04:08:40.551Z,24.30
2019-02-24T04:09:40.584Z,23.90
2019-02-24T04:10:40.617Z,22.40
2019-02-24T04:11:40.652Z,22.40
2019-02-24T04:12:40.691Z,23.20
2019-02-24T04:13:40.728Z,22.70
2019-02-24T04:14:40.754Z,23.30
2019-02-24T04:15:40.795Z,23.90
2019-02-24T04:16:40.824Z,24.60
2019-02-24T04:17:40.857Z,23.50
2019-02-24T04:18:40.892Z,23.60
2019-02-24T04:19:40.933Z,24.30
2019-02-24T04:20:40.960Z,24.00
2019-02-24T04:21:40.994Z,25.10
2019-02-24T04:22:41.026Z,27.40
2019-02-24T04:23:41.062Z,22.20
2019-02-24T04:24:41.102Z,22.00
2019-02-24T04:25:41.129Z,25.70
2019-02-24T04:26:41.165Z,25.40
2019-02-24T04:27:41.198Z,25.20
2019-02-24T04:28:41.235Z,24.40
2019-02-24T04:29:41.279Z,24.80
2019-02-24T04:30:41.307Z,24.00
2019-02-24T04:31:41.344Z,24.80
2019-02-24T04:32:41.383Z,23.10
2019-02-24T04:33:41.404Z,23.10
2019-02-24T04:34:41.435Z,23.70
2019-02-24T04:35:41.475Z,22.20
2019-02-24T04:36:41.505Z,23.10
2019-02-24T04:37:41.540Z,24.10
2019-02-24T04:38:41.573Z,22.00
2019-02-24T04:39:41.608Z,23.90
2019-02-24T04:40:41.641Z,22.70
2019-02-24T04:41:41.678Z,24.50
2019-02-24T04:42:41.711Z,21.70
2019-02-24T04:43:41.745Z,23.00
2019-02-24T04:44:41.778Z,23.90
2019-02-24T04:45:41.813Z,22.40
2019-02-24T04:46:41.848Z,21.90
2019-02-24T04:47:41.884Z,22.10
2019-02-24T04:48:41.916Z,23.50
2019-02-24T04:49:41.951Z,22.40
2019-02-24T04:50:41.983Z,20.20
2019-02-24T04:51:42.018Z,21.30
2019-02-24T04:52:42.053Z,20.80
2019-02-24T04:53:42.093Z,21.70
2019-02-24T04:54:42.121Z,19.40
2019-02-24T04:55:42.159Z,20.70
2019-02-24T04:56:42.196Z,21.70
2019-02-24T04:57:42.227Z,21.50
2019-02-24T04:58:42.257Z,20.10
2019-02-24T04:59:42.290Z,20.80
2019-02-24T05:00:42.327Z,21.50
2019-02-24T05:01:42.378Z,22.30
2019-02-24T05:02:42.393Z,22.00
2019-02-24T05:03:42.427Z,20.40
2019-02-24T05:04:42.463Z,21.50
2019-02-24T05:05:42.496Z,20.10
2019-02-24T05:06:42.529Z,23.60
2019-02-24T05:07:42.572Z,20.90
2019-02-24T05:08:42.598Z,19.60
2019-02-24T05:09:42.635Z,20.20
2019-02-24T05:10:42.666Z,20.10
2019-02-24T05:11:42.699Z,20.10
2019-02-24T05:12:42.735Z,21.10
2019-02-24T05:13:42.768Z,19.40
2019-02-24T05:14:42.802Z,21.00
2019-02-24T05:15:42.837Z,21.20
2019-02-24T05:16:42.877Z,19.60
2019-02-24T05:17:42.913Z,18.90
2019-02-24T05:18:42.937Z,24.20
2019-02-24T05:19:42.971Z,19.30
2019-02-24T05:20:43.006Z,19.40
2019-02-24T05:21:43.045Z,19.50
2019-02-24T05:22:43.078Z,19.70
2019-02-24T05:23:43.242Z,19.30
2019-02-24T05:24:43.142Z,19.50
2019-02-24T05:25:43.176Z,20.60
2019-02-24T05:26:43.209Z,21.20
2019-02-24T05:27:43.245Z,19.20
2019-02-24T05:28:43.329Z,18.10
2019-02-24T05:29:46.259Z,19.00
2019-02-24T05:30:43.354Z,18.80
2019-02-24T05:31:43.380Z,20.60
2019-02-24T05:32:43.415Z,20.00
2019-02-24T05:33:43.451Z,18.20
2019-02-24T05:34:43.490Z,20.70
2019-02-24T05:35:43.518Z,20.10
2019-02-24T05:36:43.569Z,21.20
2019-02-24T05:37:43.590Z,21.90
2019-02-24T05:38:43.627Z,21.10
2019-02-24T05:39:43.654Z,21.10
2019-02-24T05:40:43.685Z,19.20
2019-02-24T05:41:43.722Z,20.60
2019-02-24T05:42:43.752Z,19.60
2019-02-24T05:43:43.787Z,22.60
2019-02-24T05:44:43.820Z,21.10
2019-02-24T05:45:43.855Z,20.00
2019-02-24T05:46:43.889Z,21.70
2019-02-24T05:47:43.926Z,20.30
2019-02-24T05:48:43.975Z,21.30
2019-02-24T05:49:44.001Z,21.10
2019-02-24T05:50:44.025Z,19.40
2019-02-24T05:51:44.058Z,20.80
2019-02-24T05:52:44.094Z,22.60
2019-02-24T05:53:44.129Z,21.50
2019-02-24T05:54:44.161Z,22.20
2019-02-24T05:55:44.204Z,22.00
2019-02-24T05:56:44.230Z,23.30
2019-02-24T05:57:44.263Z,20.90
2019-02-24T05:58:44.298Z,24.20
2019-02-24T05:59:44.332Z,23.80
2019-02-24T06:00:44.374Z,22.40
2019-02-24T06:01:44.413Z,26.10
2019-02-24T06:02:44.437Z,24.90
2019-02-24T06:03:44.475Z,24.70
2019-02-24T06:04:44.501Z,22.10
2019-02-24T06:05:44.541Z,21.20
2019-02-24T06:06:44.572Z,23.10
2019-02-24T06:07:44.606Z,18.60
2019-02-24T06:08:44.638Z,20.90
2019-02-24T06:09:44.681Z,19.70
2019-02-24T06:10:44.705Z,22.50
2019-02-24T06:11:44.741Z,21.40
2019-02-24T06:12:44.774Z,20.00
2019-02-24T06:13:44.808Z,20.90
2019-02-24T06:14:44.842Z,20.50
2019-02-24T06:15:44.876Z,21.10
2019-02-24T06:16:44.912Z,20.10
2019-02-24T06:17:44.944Z,21.20
2019-02-24T06:18:44.999Z,19.80
2019-02-24T06:19:45.011Z,22.80
2019-02-24T06:20:45.048Z,19.40
2019-02-24T06:21:45.082Z,23.60
2019-02-24T06:22:45.114Z,22.20
2019-02-24T06:23:45.147Z,21.00
2019-02-24T06:24:45.182Z,21.40
2019-02-24T06:25:45.218Z,20.80
2019-02-24T06:26:45.255Z,21.30
2019-02-24T06:27:45.286Z,21.20
2019-02-24T06:28:45.319Z,21.50
2019-02-24T06:29:45.353Z,22.80
2019-02-24T06:30:45.385Z,24.50
2019-02-24T06:31:45.421Z,25.50
2019-02-24T06:32:45.454Z,25.60
2019-02-24T06:33:45.494Z,24.90
2019-02-24T06:34:45.521Z,24.90
2019-02-24T06:35:45.555Z,26.40
2019-02-24T06:36:45.590Z,26.00
2019-02-24T06:37:45.632Z,22.90
2019-02-24T06:38:45.657Z,24.10
2019-02-24T06:39:45.690Z,25.30
2019-02-24T06:40:45.727Z,24.50
2019-02-24T06:41:45.760Z,25.90
2019-02-24T06:42:45.797Z,25.60
2019-02-24T06:43:45.828Z,25.20
2019-02-24T06:44:45.865Z,24.60
2019-02-24T06:45:45.899Z,24.90
2019-02-24T06:46:45.929Z,25.60
2019-02-24T06:47:45.966Z,26.40
2019-02-24T06:48:45.998Z,22.70
2019-02-24T06:49:46.131Z,23.80
2019-02-24T06:50:46.065Z,23.10
2019-02-24T06:51:46.103Z,21.20
2019-02-24T06:52:46.131Z,25.40
2019-02-24T06:53:46.173Z,23.40
2019-02-24T06:54:46.201Z,21.30
2019-02-24T06:55:46.235Z,21.00
2019-02-24T06:56:46.269Z,22.30
2019-02-24T06:57:46.306Z,23.50
2019-02-24T06:58:46.336Z,23.50
2019-02-24T06:59:46.371Z,21.50
2019-02-24T07:00:46.404Z,20.40
2019-02-24T07:01:46.441Z,21.80
2019-02-24T07:02:46.476Z,23.90
2019-02-24T07:03:46.509Z,21.20
2019-02-24T07:04:46.542Z,22.90
2019-02-24T07:05:46.579Z,21.80
2019-02-24T07:06:46.608Z,23.80
2019-02-24T07:07:46.643Z,21.70
2019-02-24T07:08:46.677Z,22.20
2019-02-24T07:09:46.713Z,22.80
2019-02-24T07:10:46.746Z,21.70
2019-02-24T07:11:46.780Z,21.60
2019-02-24T07:12:46.813Z,21.70
2019-02-24T07:13:46.853Z,19.80
2019-02-24T07:14:46.880Z,22.90
2019-02-24T07:15:46.916Z,20.60
2019-02-24T07:16:46.955Z,22.90
2019-02-24T07:17:46.991Z,20.20
2019-02-24T07:18:47.027Z,23.00
2019-02-24T07:19:47.054Z,22.50
2019-02-24T07:20:47.090Z,22.40
2019-02-24T07:21:47.129Z,22.50
2019-02-24T07:22:47.154Z,21.00
2019-02-24T07:23:47.189Z,20.50
2019-02-24T07:24:47.224Z,21.10
2019-02-24T07:25:47.263Z,21.70
2019-02-24T07:26:47.291Z,19.20
2019-02-24T07:27:47.331Z,18.90
2019-02-24T07:28:47.363Z,22.70
2019-02-24T07:29:47.394Z,19.60
2019-02-24T07:30:47.428Z,19.90
2019-02-24T07:31:47.462Z,18.90
2019-02-24T07:32:47.498Z,17.70
2019-02-24T07:33:47.532Z,17.60
2019-02-24T07:34:47.564Z,19.30
2019-02-24T07:35:47.601Z,20.20
2019-02-24T07:36:47.639Z,19.20
2019-02-24T07:37:47.670Z,19.50
2019-02-24T07:38:48.140Z,18.30
2019-02-24T07:39:47.736Z,17.40
2019-02-24T07:40:47.770Z,19.70
2019-02-24T07:41:47.815Z,18.70
2019-02-24T07:42:47.841Z,18.60
2019-02-24T07:43:47.872Z,19.00
2019-02-24T07:44:47.908Z,19.20
2019-02-24T07:45:47.943Z,18.70
2019-02-24T07:46:47.984Z,20.90
2019-02-24T07:47:48.010Z,21.40
2019-02-24T07:48:48.050Z,19.10
2019-02-24T07:49:48.083Z,17.80
2019-02-24T07:50:48.116Z,19.00
2019-02-24T07:51:48.150Z,19.40
2019-02-24T07:52:48.184Z,16.70
2019-02-24T07:53:48.222Z,18.90
2019-02-24T07:54:48.254Z,18.60
2019-02-24T07:55:48.291Z,20.10
2019-02-24T07:56:48.325Z,18.30
2019-02-24T07:57:48.356Z,22.20
2019-02-24T07:58:48.397Z,18.90
2019-02-24T07:59:48.425Z,18.00
2019-02-24T08:00:48.461Z,19.10
2019-02-24T08:01:48.495Z,18.90
2019-02-24T08:02:48.536Z,20.30
2019-02-24T08:03:48.567Z,17.70
2019-02-24T08:04:48.603Z,18.00
2019-02-24T08:05:48.634Z,19.10
2019-02-24T08:06:48.668Z,19.50
2019-02-24T08:07:48.702Z,19.00
2019-02-24T08:08:48.737Z,19.60
2019-02-24T08:09:48.772Z,18.60
2019-02-24T08:10:48.810Z,18.80
2019-02-24T08:11:48.840Z,18.20
2019-02-24T08:12:48.876Z,17.90
2019-02-24T08:13:48.966Z,18.30
2019-02-24T08:14:48.945Z,18.70
2019-02-24T08:15:48.981Z,20.80
2019-02-24T08:16:49.015Z,19.00
2019-02-24T08:17:49.059Z,17.40
2019-02-24T08:18:50.561Z,19.90
2019-02-24T08:19:49.119Z,19.90
2019-02-24T08:20:49.183Z,17.50
2019-02-24T08:21:49.192Z,18.70
2019-02-24T08:22:49.225Z,19.50
2019-02-24T08:23:49.260Z,20.10
2019-02-24T08:24:49.295Z,17.90
2019-02-24T08:25:49.393Z,19.20
2019-02-24T08:26:49.365Z,18.50
2019-02-24T08:27:49.404Z,17.30
2019-02-24T08:28:49.436Z,20.70
2019-02-24T08:29:49.486Z,19.50
2019-02-24T08:30:49.505Z,19.70
2019-02-24T08:31:49.543Z,20.70
2019-02-24T08:32:49.576Z,19.00
2019-02-24T08:33:49.612Z,18.00
2019-02-24T08:34:49.646Z,17.90
2019-02-24T08:35:49.687Z,19.60
2019-02-24T08:36:49.715Z,19.80
2019-02-24T08:37:49.751Z,18.30
2019-02-24T08:38:49.787Z,17.70
2019-02-24T08:39:49.822Z,20.90
2019-02-24T08:40:49.861Z,18.70
2019-02-24T08:41:49.891Z,20.40
2019-02-24T08:42:49.925Z,18.50
2019-02-24T08:43:49.962Z,18.40
2019-02-24T08:44:49.997Z,18.60
2019-02-24T08:45:50.032Z,20.30
2019-02-24T08:46:50.067Z,17.00
2019-02-24T08:47:50.101Z,17.80
2019-02-24T08:48:50.139Z,18.70
2019-02-24T08:49:50.181Z,19.50
2019-02-24T08:50:50.211Z,17.80
2019-02-24T08:51:50.244Z,16.20
2019-02-24T08:52:50.311Z,16.20
2019-02-24T08:53:50.316Z,18.00
2019-02-24T08:54:50.353Z,17.30
2019-02-24T08:55:50.385Z,18.20
2019-02-24T08:56:50.427Z,17.60
2019-02-24T08:57:50.458Z,16.50
2019-02-24T08:58:50.494Z,18.40
2019-02-24T08:59:50.532Z,18.50
2019-02-24T09:00:51.418Z,18.80
2019-02-24T09:01:50.598Z,17.80
2019-02-24T09:02:52.536Z,21.00
2019-02-24T09:03:50.681Z,21.00
2019-02-24T09:04:50.723Z,18.50
2019-02-24T09:05:52.211Z,18.40
2019-02-24T09:06:50.784Z,17.20
2019-02-24T09:07:50.874Z,17.40
2019-02-24T09:08:51.000Z,18.40
2019-02-24T09:09:50.887Z,20.40
2019-02-24T09:10:50.922Z,17.40
2019-02-24T09:11:50.979Z,19.00
2019-02-24T09:12:51.030Z,18.80
2019-02-24T09:13:51.028Z,18.70
2019-02-24T09:14:51.118Z,15.80
2019-02-24T09:15:53.207Z,16.80
2019-02-24T09:16:51.140Z,18.00
2019-02-24T09:17:51.171Z,16.90
2019-02-24T09:18:51.206Z,19.20
2019-02-24T09:19:51.300Z,17.90
2019-02-24T09:20:51.287Z,17.30
2019-02-24T09:21:51.314Z,15.10
2019-02-24T09:22:51.350Z,16.40
2019-02-24T09:23:51.392Z,17.00
2019-02-24T09:24:51.424Z,16.60
2019-02-24T09:25:51.472Z,15.70
2019-02-24T09:26:51.544Z,18.00
2019-02-24T09:27:51.530Z,13.90
2019-02-24T09:28:51.577Z,16.50
2019-02-24T09:29:51.607Z,15.20
2019-02-24T09:31:00.196Z,14.20
2019-02-24T09:31:51.676Z,12.50
2019-02-24T09:32:51.723Z,14.10
2019-02-24T09:33:51.791Z,13.80
2019-02-24T09:34:51.802Z,13.60
2019-02-24T09:35:51.920Z,13.20
2019-02-24T09:36:51.863Z,15.00
2019-02-24T09:37:51.894Z,13.80
2019-02-24T09:38:51.930Z,12.80
2019-02-24T09:39:51.964Z,15.10
2019-02-24T09:40:52.016Z,13.80
2019-02-24T09:41:52.038Z,13.70
2019-02-24T09:42:52.075Z,13.20
2019-02-24T09:43:52.111Z,12.50
2019-02-24T09:44:52.149Z,12.50
2019-02-24T09:45:52.188Z,11.00
2019-02-24T09:46:52.221Z,12.70
2019-02-24T09:47:52.264Z,12.40
2019-02-24T09:48:52.289Z,13.20
2019-02-24T09:49:52.349Z,11.00
2019-02-24T09:50:52.515Z,12.20
2019-02-24T09:51:52.475Z,12.60
2019-02-24T09:52:52.444Z,13.50
2019-02-24T09:53:52.473Z,13.30
2019-02-24T09:54:52.511Z,14.00
2019-02-24T09:55:52.546Z,17.30
2019-02-24T09:56:52.582Z,16.10
2019-02-24T09:57:52.616Z,15.90
2019-02-24T09:58:52.652Z,14.30
2019-02-24T09:59:52.769Z,13.20
2019-02-24T10:00:52.729Z,13.10
2019-02-24T10:01:52.776Z,14.80
2019-02-24T10:02:52.801Z,16.60
2019-02-24T10:03:52.837Z,16.90
2019-02-24T10:04:52.877Z,16.80
2019-02-24T10:05:52.916Z,16.50
2019-02-24T10:06:52.954Z,15.40
2019-02-24T10:07:52.982Z,13.70
2019-02-24T10:08:53.026Z,15.30
2019-02-24T10:09:53.057Z,12.60
2019-02-24T10:10:53.093Z,13.20
2019-02-24T10:11:53.129Z,12.30
2019-02-24T10:12:53.167Z,12.70
2019-02-24T10:13:53.203Z,14.50
2019-02-24T10:14:53.241Z,12.60
2019-02-24T10:15:53.292Z,12.90
2019-02-24T10:16:53.317Z,12.40
2019-02-24T10:17:53.370Z,11.30
2019-02-24T10:18:53.389Z,12.00
2019-02-24T10:19:53.499Z,11.70
2019-02-24T10:20:53.459Z,12.00
2019-02-24T10:21:53.505Z,12.50
2019-02-24T10:22:53.542Z,13.30
2019-02-24T10:23:53.658Z,13.30
2019-02-24T10:24:53.616Z,12.00
2019-02-24T10:25:53.644Z,13.60
2019-02-24T10:26:53.731Z,13.00
2019-02-24T10:27:53.733Z,11.90
2019-02-24T10:28:53.761Z,14.10
2019-02-24T10:29:53.804Z,11.70
2019-02-24T10:30:53.830Z,11.20
2019-02-24T10:31:53.884Z,11.80
2019-02-24T10:32:53.910Z,9.60
2019-02-24T10:33:53.947Z,9.20
2019-02-24T10:34:53.982Z,9.60
2019-02-24T10:35:54.027Z,9.10
2019-02-24T10:36:54.055Z,9.80
2019-02-24T10:37:54.092Z,10.20
2019-02-24T10:38:54.141Z,10.00
2019-02-24T10:39:54.176Z,9.50
2019-02-24T10:40:54.202Z,8.30
2019-02-24T10:41:54.255Z,9.20
2019-02-24T10:42:54.291Z,8.20
2019-02-24T10:43:54.324Z,7.80
2019-02-24T10:44:54.365Z,7.90
2019-02-24T10:45:54.390Z,7.60
2019-02-24T10:46:54.425Z,8.00
2019-02-24T10:47:54.475Z,7.80
2019-02-24T10:49:03.140Z,8.40
2019-02-24T10:49:54.539Z,6.60
2019-02-24T10:50:54.575Z,7.20
2019-02-24T10:51:54.618Z,7.60
2019-02-24T10:52:54.650Z,7.20
2019-02-24T10:53:54.685Z,7.30
2019-02-24T10:54:54.725Z,6.70
2019-02-24T10:55:54.761Z,6.90
2019-02-24T10:56:54.809Z,6.40
2019-02-24T10:57:54.835Z,7.60
2019-02-24T10:58:54.878Z,9.00
2019-02-24T10:59:54.923Z,9.10
2019-02-24T11:00:54.954Z,9.90
2019-02-24T11:01:54.985Z,9.30
2019-02-24T11:02:55.025Z,9.00
2019-02-24T11:03:55.060Z,10.60
2019-02-24T11:04:55.109Z,10.70
2019-02-24T11:05:55.145Z,10.40
2019-02-24T11:06:55.176Z,8.80
2019-02-24T11:07:55.210Z,8.30
2019-02-24T11:08:55.267Z,8.70
2019-02-24T11:09:55.292Z,8.40
2019-02-24T11:10:55.443Z,8.60
2019-02-24T11:11:55.372Z,8.50
2019-02-24T11:12:55.405Z,7.60
2019-02-24T11:13:55.462Z,8.20
2019-02-24T11:14:55.477Z,7.20
2019-02-24T11:15:55.531Z,6.90
2019-02-24T11:16:55.554Z,6.70
2019-02-24T11:17:56.108Z,8.40
2019-02-24T11:18:55.644Z,7.70
2019-02-24T11:19:56.026Z,6.90
2019-02-24T11:20:55.832Z,7.10
2019-02-24T11:21:55.952Z,7.70
2019-02-24T11:22:55.790Z,6.00
2019-02-24T11:23:55.815Z,6.90
2019-02-24T11:24:55.854Z,7.40
2019-02-24T11:25:55.901Z,9.30
2019-02-24T11:26:55.935Z,9.20
2019-02-24T11:27:55.971Z,7.50
2019-02-24T11:28:56.016Z,8.40
2019-02-24T11:29:56.051Z,9.70
2019-02-24T11:30:56.106Z,8.70
2019-02-24T11:31:57.946Z,8.90
2019-02-24T11:32:56.160Z,7.90
2019-02-24T11:33:56.200Z,7.90
2019-02-24T11:34:56.349Z,8.20
2019-02-24T11:35:56.278Z,9.80
2019-02-24T11:36:56.339Z,9.40
2019-02-24T11:37:56.354Z,7.90
2019-02-24T11:38:56.497Z,7.50
2019-02-24T11:39:56.430Z,7.80
2019-02-24T11:40:56.474Z,7.40
2019-02-24T11:41:56.511Z,7.40
2019-02-24T11:42:56.548Z,7.80
2019-02-24T11:43:56.583Z,7.30
2019-02-24T11:44:56.622Z,8.40
2019-02-24T11:45:56.669Z,7.40
2019-02-24T11:46:56.718Z,8.70
2019-02-24T11:47:56.751Z,8.00
2019-02-24T11:48:56.780Z,8.70
2019-02-24T11:49:56.823Z,9.30
2019-02-24T11:50:56.868Z,7.90
2019-02-24T11:52:03.622Z,9.00
2019-02-24T11:52:56.934Z,9.70
2019-02-24T11:53:56.972Z,9.20
2019-02-24T11:54:57.007Z,9.90
2019-02-24T11:55:57.054Z,8.00
2019-02-24T11:56:57.085Z,8.70
2019-02-24T11:57:57.146Z,8.20
2019-02-24T11:58:57.165Z,8.80
2019-02-24T11:59:57.215Z,7.60
2019-02-24T12:00:57.254Z,7.70
2019-02-24T12:01:57.295Z,7.00
2019-02-24T12:02:57.317Z,9.00
2019-02-24T12:03:57.359Z,8.40
2019-02-24T12:04:57.398Z,6.90
2019-02-24T12:05:57.446Z,8.50
2019-02-24T12:06:57.473Z,8.00
2019-02-24T12:07:57.526Z,7.80
2019-02-24T12:09:05.066Z,8.10
2019-02-24T12:09:57.595Z,7.30
2019-02-24T12:10:57.634Z,7.60
2019-02-24T12:11:57.678Z,6.80
2019-02-24T12:12:57.712Z,8.00
2019-02-24T12:13:57.763Z,7.90
2019-02-24T12:14:57.790Z,7.80
2019-02-24T12:15:57.842Z,8.00
2019-02-24T12:16:57.868Z,9.00
2019-02-24T12:17:57.916Z,7.80
2019-02-24T12:18:57.957Z,6.90
2019-02-24T12:19:57.995Z,7.40
2019-02-24T12:20:58.026Z,8.30
2019-02-24T12:21:58.065Z,8.80
2019-02-24T12:22:58.165Z,8.60
2019-02-24T12:23:58.147Z,8.40
2019-02-24T12:24:58.214Z,7.00
2019-02-24T12:25:58.220Z,6.60
2019-02-24T12:26:58.385Z,7.60
2019-02-24T12:27:58.312Z,6.30
2019-02-24T12:28:58.339Z,7.50
2019-02-24T12:29:58.394Z,7.50
2019-02-24T12:30:58.418Z,7.60
2019-02-24T12:31:58.457Z,8.40
2019-02-24T12:32:58.498Z,6.60
2019-02-24T12:33:58.539Z,6.60
2019-02-24T12:34:58.579Z,6.40
2019-02-24T12:35:58.615Z,8.00
2019-02-24T12:36:58.676Z,6.90
2019-02-24T12:37:58.710Z,6.90
2019-02-24T12:38:58.741Z,7.30
2019-02-24T12:39:58.778Z,6.20
2019-02-24T12:40:58.819Z,5.90
2019-02-24T12:41:58.859Z,6.40
2019-02-24T12:42:58.892Z,6.10
2019-02-24T12:43:58.944Z,6.90
2019-02-24T12:44:58.988Z,8.00
2019-02-24T12:45:59.023Z,6.40
2019-02-24T12:47:00.421Z,5.80
2019-02-24T12:48:00.383Z,8.70
2019-02-24T12:48:59.136Z,6.80
2019-02-24T12:50:03.150Z,6.50
2019-02-24T12:50:59.220Z,5.70
2019-02-24T12:51:59.259Z,6.10
2019-02-24T12:52:59.291Z,6.50
2019-02-24T12:53:59.432Z,6.60
2019-02-24T12:54:59.371Z,6.50
2019-02-24T12:55:59.417Z,5.50
2019-02-24T12:56:59.455Z,5.50
2019-02-24T12:57:59.500Z,6.80